sensor_id;sensor_type;location;lat;lon;timestamp;P1;durP1;ratioP1;P2;durP2;ratioP2
62338;SDS011;48368;53.406;6.214;2023-02-13T00:00:29;35.28;;;16.75;;
62338;SDS011;48368;53.406;6.214;2023-02-13T00:02:56;38.78;;;18.13;;
62338;SDS011;48368;53.406;6.214;2023-02-13T00:05:21;38.42;;;18.15;;
62338;SDS011;48368;53.406;6.214;2023-02-13T00:07:47;39.03;;;18.42;;
62338;SDS011;48368;53.406;6.214;2023-02-13T00:10:12;36.33;;;16.48;;
62338;SDS011;48368;53.406;6.214;2023-02-13T00:12:38;39.20;;;18.23;;
62338;SDS011;48368;53.406;6.214;2023-02-13T00:15:04;40.17;;;16.83;;
62338;SDS011;48368;53.406;6.214;2023-02-13T00:17:30;35.97;;;17.25;;
62338;SDS011;48368;53.406;6.214;2023-02-13T00:19:56;39.88;;;18.45;;
62338;SDS011;48368;53.406;6.214;2023-02-13T00:22:22;39.50;;;17.13;;
62338;SDS011;48368;53.406;6.214;2023-02-13T00:24:48;41.80;;;19.05;;
62338;SDS011;48368;53.406;6.214;2023-02-13T00:27:14;36.85;;;16.88;;
62338;SDS011;48368;53.406;6.214;2023-02-13T00:29:40;38.30;;;17.65;;
62338;SDS011;48368;53.406;6.214;2023-02-13T00:32:05;37.00;;;17.73;;
62338;SDS011;48368;53.406;6.214;2023-02-13T00:34:31;43.03;;;18.27;;
62338;SDS011;48368;53.406;6.214;2023-02-13T00:36:57;33.42;;;16.33;;
62338;SDS011;48368;53.406;6.214;2023-02-13T00:39:23;34.92;;;16.20;;
62338;SDS011;48368;53.406;6.214;2023-02-13T00:41:48;41.75;;;17.23;;
62338;SDS011;48368;53.406;6.214;2023-02-13T00:44:14;40.30;;;18.10;;
62338;SDS011;48368;53.406;6.214;2023-02-13T00:46:39;33.97;;;16.60;;
62338;SDS011;48368;53.406;6.214;2023-02-13T00:49:05;34.25;;;16.90;;
62338;SDS011;48368;53.406;6.214;2023-02-13T00:51:31;37.95;;;16.13;;
62338;SDS011;48368;53.406;6.214;2023-02-13T00:53:57;38.40;;;17.60;;
62338;SDS011;48368;53.406;6.214;2023-02-13T00:56:22;36.70;;;16.38;;
62338;SDS011;48368;53.406;6.214;2023-02-13T00:58:48;36.45;;;16.60;;
62338;SDS011;48368;53.406;6.214;2023-02-13T01:01:14;39.55;;;16.88;;
62338;SDS011;48368;53.406;6.214;2023-02-13T01:03:39;37.08;;;16.98;;
62338;SDS011;48368;53.406;6.214;2023-02-13T01:06:05;37.97;;;16.73;;
62338;SDS011;48368;53.406;6.214;2023-02-13T01:08:31;36.78;;;17.80;;
62338;SDS011;48368;53.406;6.214;2023-02-13T01:10:57;39.97;;;16.83;;
62338;SDS011;48368;53.406;6.214;2023-02-13T01:13:22;37.75;;;17.83;;
62338;SDS011;48368;53.406;6.214;2023-02-13T01:15:49;41.97;;;17.45;;
62338;SDS011;48368;53.406;6.214;2023-02-13T01:18:16;39.50;;;17.55;;
62338;SDS011;48368;53.406;6.214;2023-02-13T01:20:43;39.25;;;16.67;;
62338;SDS011;48368;53.406;6.214;2023-02-13T01:23:10;36.47;;;16.98;;
62338;SDS011;48368;53.406;6.214;2023-02-13T01:25:42;37.22;;;16.35;;
62338;SDS011;48368;53.406;6.214;2023-02-13T01:28:08;40.03;;;17.65;;
62338;SDS011;48368;53.406;6.214;2023-02-13T01:30:34;37.58;;;17.58;;
62338;SDS011;48368;53.406;6.214;2023-02-13T01:32:59;37.03;;;16.08;;
62338;SDS011;48368;53.406;6.214;2023-02-13T01:35:25;39.50;;;17.55;;
62338;SDS011;48368;53.406;6.214;2023-02-13T01:37:51;42.83;;;17.92;;
62338;SDS011;48368;53.406;6.214;2023-02-13T01:40:16;39.30;;;16.92;;
62338;SDS011;48368;53.406;6.214;2023-02-13T01:42:42;39.90;;;17.17;;
62338;SDS011;48368;53.406;6.214;2023-02-13T01:47:46;35.90;;;17.80;;
62338;SDS011;48368;53.406;6.214;2023-02-13T01:50:38;41.63;;;18.65;;
62338;SDS011;48368;53.406;6.214;2023-02-13T01:53:09;38.67;;;18.52;;
62338;SDS011;48368;53.406;6.214;2023-02-13T01:55:45;38.42;;;17.27;;
62338;SDS011;48368;53.406;6.214;2023-02-13T01:58:15;43.85;;;18.25;;
62338;SDS011;48368;53.406;6.214;2023-02-13T02:00:45;42.85;;;18.48;;
62338;SDS011;48368;53.406;6.214;2023-02-13T02:03:34;38.60;;;17.77;;
62338;SDS011;48368;53.406;6.214;2023-02-13T02:06:10;39.92;;;19.33;;
62338;SDS011;48368;53.406;6.214;2023-02-13T02:08:40;37.92;;;16.75;;
62338;SDS011;48368;53.406;6.214;2023-02-13T02:11:10;37.03;;;18.15;;
62338;SDS011;48368;53.406;6.214;2023-02-13T02:13:44;40.17;;;18.50;;
62338;SDS011;48368;53.406;6.214;2023-02-13T02:16:11;40.35;;;18.70;;
62338;SDS011;48368;53.406;6.214;2023-02-13T02:18:36;43.15;;;18.67;;
62338;SDS011;48368;53.406;6.214;2023-02-13T02:23:40;39.45;;;17.85;;
62338;SDS011;48368;53.406;6.214;2023-02-13T02:29:11;41.58;;;18.63;;
62338;SDS011;48368;53.406;6.214;2023-02-13T02:32:05;41.08;;;17.50;;
62338;SDS011;48368;53.406;6.214;2023-02-13T02:48:53;39.72;;;18.25;;
62338;SDS011;48368;53.406;6.214;2023-02-13T02:54:18;36.85;;;17.52;;
62338;SDS011;48368;53.406;6.214;2023-02-13T02:57:29;30.58;;;15.07;;
62338;SDS011;48368;53.406;6.214;2023-02-13T03:00:15;36.35;;;17.25;;
62338;SDS011;48368;53.406;6.214;2023-02-13T03:03:03;39.35;;;17.60;;
62338;SDS011;48368;53.406;6.214;2023-02-13T03:05:49;38.45;;;16.83;;
62338;SDS011;48368;53.406;6.214;2023-02-13T03:08:34;37.67;;;16.60;;
62338;SDS011;48368;53.406;6.214;2023-02-13T03:11:18;40.78;;;18.60;;
62338;SDS011;48368;53.406;6.214;2023-02-13T03:14:03;40.58;;;18.98;;
62338;SDS011;48368;53.406;6.214;2023-02-13T03:16:31;37.50;;;17.23;;
62338;SDS011;48368;53.406;6.214;2023-02-13T03:19:21;40.92;;;18.55;;
62338;SDS011;48368;53.406;6.214;2023-02-13T03:22:20;38.85;;;17.40;;
62338;SDS011;48368;53.406;6.214;2023-02-13T03:27:56;42.30;;;18.52;;
62338;SDS011;48368;53.406;6.214;2023-02-13T03:33:28;41.33;;;18.55;;
62338;SDS011;48368;53.406;6.214;2023-02-13T03:42:20;41.60;;;17.60;;
62338;SDS011;48368;53.406;6.214;2023-02-13T03:44:59;37.65;;;17.90;;
62338;SDS011;48368;53.406;6.214;2023-02-13T03:47:48;41.33;;;17.65;;
62338;SDS011;48368;53.406;6.214;2023-02-13T03:50:17;36.22;;;15.93;;
62338;SDS011;48368;53.406;6.214;2023-02-13T03:55:31;39.67;;;17.92;;
62338;SDS011;48368;53.406;6.214;2023-02-13T03:58:40;45.33;;;18.52;;
62338;SDS011;48368;53.406;6.214;2023-02-13T04:01:27;38.97;;;17.05;;
62338;SDS011;48368;53.406;6.214;2023-02-13T04:04:18;42.20;;;18.63;;
62338;SDS011;48368;53.406;6.214;2023-02-13T04:06:53;38.30;;;18.27;;
62338;SDS011;48368;53.406;6.214;2023-02-13T04:09:24;41.05;;;18.45;;
62338;SDS011;48368;53.406;6.214;2023-02-13T04:12:01;38.50;;;17.60;;
62338;SDS011;48368;53.406;6.214;2023-02-13T04:15:02;44.90;;;17.83;;
62338;SDS011;48368;53.406;6.214;2023-02-13T04:17:34;45.67;;;19.58;;
62338;SDS011;48368;53.406;6.214;2023-02-13T04:20:04;41.00;;;16.95;;
62338;SDS011;48368;53.406;6.214;2023-02-13T04:22:31;42.95;;;17.75;;
62338;SDS011;48368;53.406;6.214;2023-02-13T04:24:57;37.33;;;16.08;;
62338;SDS011;48368;53.406;6.214;2023-02-13T04:27:23;37.38;;;16.77;;
62338;SDS011;48368;53.406;6.214;2023-02-13T04:29:51;41.35;;;17.63;;
62338;SDS011;48368;53.406;6.214;2023-02-13T04:32:17;37.30;;;18.15;;
62338;SDS011;48368;53.406;6.214;2023-02-13T04:34:43;41.42;;;18.50;;
62338;SDS011;48368;53.406;6.214;2023-02-13T04:37:08;40.30;;;18.70;;
62338;SDS011;48368;53.406;6.214;2023-02-13T04:39:34;39.95;;;18.13;;
62338;SDS011;48368;53.406;6.214;2023-02-13T04:42:00;43.17;;;19.25;;
62338;SDS011;48368;53.406;6.214;2023-02-13T04:44:25;42.13;;;18.13;;
62338;SDS011;48368;53.406;6.214;2023-02-13T04:46:51;43.05;;;17.80;;
62338;SDS011;48368;53.406;6.214;2023-02-13T04:49:16;39.78;;;17.88;;
62338;SDS011;48368;53.406;6.214;2023-02-13T04:51:42;39.25;;;18.17;;
62338;SDS011;48368;53.406;6.214;2023-02-13T04:54:08;39.20;;;17.38;;
62338;SDS011;48368;53.406;6.214;2023-02-13T04:56:34;38.67;;;16.20;;
62338;SDS011;48368;53.406;6.214;2023-02-13T04:59:00;41.75;;;18.33;;
62338;SDS011;48368;53.406;6.214;2023-02-13T05:01:26;41.15;;;17.63;;
62338;SDS011;48368;53.406;6.214;2023-02-13T05:03:51;37.95;;;17.17;;
62338;SDS011;48368;53.406;6.214;2023-02-13T05:06:17;43.38;;;19.48;;
62338;SDS011;48368;53.406;6.214;2023-02-13T05:08:42;42.35;;;18.17;;
62338;SDS011;48368;53.406;6.214;2023-02-13T05:11:08;39.42;;;18.38;;
62338;SDS011;48368;53.406;6.214;2023-02-13T05:13:34;41.25;;;18.13;;
62338;SDS011;48368;53.406;6.214;2023-02-13T05:15:59;41.67;;;19.73;;
62338;SDS011;48368;53.406;6.214;2023-02-13T05:18:25;43.85;;;18.98;;
62338;SDS011;48368;53.406;6.214;2023-02-13T05:20:51;44.63;;;18.75;;
62338;SDS011;48368;53.406;6.214;2023-02-13T05:23:36;41.40;;;17.55;;
62338;SDS011;48368;53.406;6.214;2023-02-13T05:26:02;42.67;;;18.08;;
62338;SDS011;48368;53.406;6.214;2023-02-13T05:28:28;44.63;;;19.13;;
62338;SDS011;48368;53.406;6.214;2023-02-13T05:31:12;42.55;;;18.77;;
62338;SDS011;48368;53.406;6.214;2023-02-13T05:33:38;43.30;;;18.42;;
62338;SDS011;48368;53.406;6.214;2023-02-13T05:36:04;42.20;;;18.83;;
62338;SDS011;48368;53.406;6.214;2023-02-13T05:38:30;45.60;;;18.58;;
62338;SDS011;48368;53.406;6.214;2023-02-13T05:40:57;46.25;;;20.45;;
62338;SDS011;48368;53.406;6.214;2023-02-13T05:43:26;42.15;;;18.88;;
62338;SDS011;48368;53.406;6.214;2023-02-13T05:46:02;41.47;;;18.52;;
62338;SDS011;48368;53.406;6.214;2023-02-13T05:48:32;46.00;;;19.23;;
62338;SDS011;48368;53.406;6.214;2023-02-13T05:50:58;42.45;;;18.75;;
62338;SDS011;48368;53.406;6.214;2023-02-13T05:53:23;46.05;;;19.25;;
62338;SDS011;48368;53.406;6.214;2023-02-13T05:55:49;48.58;;;21.65;;
62338;SDS011;48368;53.406;6.214;2023-02-13T05:58:18;44.28;;;19.38;;
62338;SDS011;48368;53.406;6.214;2023-02-13T06:00:44;46.40;;;18.63;;
62338;SDS011;48368;53.406;6.214;2023-02-13T06:03:10;43.60;;;19.27;;
62338;SDS011;48368;53.406;6.214;2023-02-13T06:05:36;42.97;;;19.10;;
62338;SDS011;48368;53.406;6.214;2023-02-13T06:08:02;45.42;;;19.40;;
62338;SDS011;48368;53.406;6.214;2023-02-13T06:10:28;45.85;;;20.10;;
62338;SDS011;48368;53.406;6.214;2023-02-13T06:12:53;42.53;;;18.48;;
62338;SDS011;48368;53.406;6.214;2023-02-13T06:15:19;48.83;;;18.30;;
62338;SDS011;48368;53.406;6.214;2023-02-13T06:17:44;46.45;;;18.42;;
62338;SDS011;48368;53.406;6.214;2023-02-13T06:20:10;44.40;;;19.33;;
62338;SDS011;48368;53.406;6.214;2023-02-13T06:22:36;44.15;;;19.30;;
62338;SDS011;48368;53.406;6.214;2023-02-13T06:25:01;44.13;;;19.55;;
62338;SDS011;48368;53.406;6.214;2023-02-13T06:27:27;44.10;;;18.63;;
62338;SDS011;48368;53.406;6.214;2023-02-13T06:29:53;46.80;;;18.60;;
62338;SDS011;48368;53.406;6.214;2023-02-13T06:32:19;45.90;;;19.13;;
62338;SDS011;48368;53.406;6.214;2023-02-13T06:34:44;48.65;;;20.13;;
62338;SDS011;48368;53.406;6.214;2023-02-13T06:37:10;42.65;;;18.33;;
62338;SDS011;48368;53.406;6.214;2023-02-13T06:39:35;42.97;;;18.40;;
62338;SDS011;48368;53.406;6.214;2023-02-13T06:42:01;43.13;;;19.20;;
62338;SDS011;48368;53.406;6.214;2023-02-13T06:44:27;44.47;;;18.38;;
62338;SDS011;48368;53.406;6.214;2023-02-13T06:46:52;38.92;;;17.52;;
62338;SDS011;48368;53.406;6.214;2023-02-13T06:49:18;39.67;;;19.10;;
62338;SDS011;48368;53.406;6.214;2023-02-13T06:51:43;42.92;;;17.60;;
62338;SDS011;48368;53.406;6.214;2023-02-13T06:54:09;43.58;;;18.50;;
62338;SDS011;48368;53.406;6.214;2023-02-13T06:56:35;44.50;;;18.48;;
62338;SDS011;48368;53.406;6.214;2023-02-13T06:59:00;44.17;;;18.75;;
62338;SDS011;48368;53.406;6.214;2023-02-13T07:01:26;46.20;;;18.65;;
62338;SDS011;48368;53.406;6.214;2023-02-13T07:03:51;45.50;;;19.08;;
62338;SDS011;48368;53.406;6.214;2023-02-13T07:06:18;39.70;;;16.83;;
62338;SDS011;48368;53.406;6.214;2023-02-13T07:08:44;37.15;;;16.27;;
62338;SDS011;48368;53.406;6.214;2023-02-13T07:11:16;42.85;;;18.60;;
62338;SDS011;48368;53.406;6.214;2023-02-13T07:28:34;43.35;;;18.80;;
62338;SDS011;48368;53.406;6.214;2023-02-13T07:31:02;41.80;;;18.25;;
62338;SDS011;48368;53.406;6.214;2023-02-13T07:33:29;43.95;;;18.33;;
62338;SDS011;48368;53.406;6.214;2023-02-13T07:35:56;43.35;;;18.58;;
62338;SDS011;48368;53.406;6.214;2023-02-13T07:38:21;46.15;;;19.60;;
62338;SDS011;48368;53.406;6.214;2023-02-13T07:40:47;43.72;;;18.58;;
62338;SDS011;48368;53.406;6.214;2023-02-13T07:43:12;43.33;;;17.77;;
62338;SDS011;48368;53.406;6.214;2023-02-13T07:45:38;47.53;;;19.67;;
62338;SDS011;48368;53.406;6.214;2023-02-13T07:48:04;52.03;;;20.65;;
62338;SDS011;48368;53.406;6.214;2023-02-13T07:50:29;46.22;;;19.10;;
62338;SDS011;48368;53.406;6.214;2023-02-13T07:53:00;45.05;;;20.88;;
62338;SDS011;48368;53.406;6.214;2023-02-13T07:55:26;41.58;;;19.15;;
62338;SDS011;48368;53.406;6.214;2023-02-13T07:57:53;46.72;;;19.83;;
62338;SDS011;48368;53.406;6.214;2023-02-13T08:00:20;47.33;;;20.20;;
62338;SDS011;48368;53.406;6.214;2023-02-13T08:02:46;52.30;;;21.40;;
62338;SDS011;48368;53.406;6.214;2023-02-13T08:05:12;48.58;;;22.73;;
62338;SDS011;48368;53.406;6.214;2023-02-13T08:07:41;50.75;;;23.08;;
62338;SDS011;48368;53.406;6.214;2023-02-13T08:10:10;46.95;;;21.52;;
62338;SDS011;48368;53.406;6.214;2023-02-13T08:15:47;46.42;;;18.50;;
62338;SDS011;48368;53.406;6.214;2023-02-13T08:18:40;50.33;;;20.20;;
62338;SDS011;48368;53.406;6.214;2023-02-13T08:21:11;43.55;;;19.60;;
62338;SDS011;48368;53.406;6.214;2023-02-13T08:23:44;46.35;;;20.60;;
62338;SDS011;48368;53.406;6.214;2023-02-13T08:26:12;44.38;;;19.65;;
62338;SDS011;48368;53.406;6.214;2023-02-13T08:28:44;44.78;;;20.00;;
62338;SDS011;48368;53.406;6.214;2023-02-13T08:31:16;44.03;;;17.92;;
62338;SDS011;48368;53.406;6.214;2023-02-13T08:33:45;47.25;;;19.70;;
62338;SDS011;48368;53.406;6.214;2023-02-13T08:36:17;47.25;;;20.17;;
62338;SDS011;48368;53.406;6.214;2023-02-13T08:38:50;43.38;;;19.33;;
62338;SDS011;48368;53.406;6.214;2023-02-13T08:41:24;48.63;;;18.83;;
62338;SDS011;48368;53.406;6.214;2023-02-13T08:43:50;46.88;;;20.85;;
62338;SDS011;48368;53.406;6.214;2023-02-13T08:46:17;46.10;;;20.52;;
62338;SDS011;48368;53.406;6.214;2023-02-13T08:48:49;49.13;;;22.95;;
62338;SDS011;48368;53.406;6.214;2023-02-13T08:51:21;46.50;;;20.60;;
62338;SDS011;48368;53.406;6.214;2023-02-13T08:53:49;44.95;;;19.20;;
62338;SDS011;48368;53.406;6.214;2023-02-13T08:56:21;44.67;;;19.13;;
62338;SDS011;48368;53.406;6.214;2023-02-13T08:58:56;47.03;;;18.80;;
62338;SDS011;48368;53.406;6.214;2023-02-13T09:01:37;43.70;;;19.17;;
62338;SDS011;48368;53.406;6.214;2023-02-13T09:04:12;44.58;;;19.00;;
62338;SDS011;48368;53.406;6.214;2023-02-13T09:06:42;39.13;;;18.08;;
62338;SDS011;48368;53.406;6.214;2023-02-13T09:09:15;42.60;;;18.13;;
62338;SDS011;48368;53.406;6.214;2023-02-13T09:14:25;49.40;;;21.35;;
62338;SDS011;48368;53.406;6.214;2023-02-13T09:16:51;48.28;;;19.75;;
62338;SDS011;48368;53.406;6.214;2023-02-13T09:19:23;46.60;;;20.75;;
62338;SDS011;48368;53.406;6.214;2023-02-13T09:21:48;46.92;;;20.98;;
62338;SDS011;48368;53.406;6.214;2023-02-13T09:30:29;45.05;;;20.00;;
62338;SDS011;48368;53.406;6.214;2023-02-13T09:32:57;46.47;;;18.83;;
62338;SDS011;48368;53.406;6.214;2023-02-13T09:35:23;46.97;;;20.85;;
62338;SDS011;48368;53.406;6.214;2023-02-13T09:54:30;47.78;;;19.63;;
62338;SDS011;48368;53.406;6.214;2023-02-13T09:57:00;44.53;;;21.13;;
62338;SDS011;48368;53.406;6.214;2023-02-13T10:17:41;42.45;;;18.77;;
62338;SDS011;48368;53.406;6.214;2023-02-13T10:24:13;41.72;;;18.83;;
62338;SDS011;48368;53.406;6.214;2023-02-13T10:26:34;43.80;;;18.98;;
62338;SDS011;48368;53.406;6.214;2023-02-13T10:29:23;55.45;;;22.45;;
62338;SDS011;48368;53.406;6.214;2023-02-13T11:06:57;46.25;;;20.70;;
62338;SDS011;48368;53.406;6.214;2023-02-13T11:09:28;42.55;;;19.08;;
62338;SDS011;48368;53.406;6.214;2023-02-13T11:12:31;44.03;;;19.63;;
62338;SDS011;48368;53.406;6.214;2023-02-13T11:18:37;43.92;;;20.38;;
62338;SDS011;48368;53.406;6.214;2023-02-13T11:21:21;46.38;;;19.85;;
62338;SDS011;48368;53.406;6.214;2023-02-13T11:27:02;47.33;;;18.85;;
62338;SDS011;48368;53.406;6.214;2023-02-13T11:29:53;47.40;;;20.17;;
62338;SDS011;48368;53.406;6.214;2023-02-13T11:36:23;42.90;;;18.65;;
62338;SDS011;48368;53.406;6.214;2023-02-13T11:39:30;48.88;;;19.77;;
62338;SDS011;48368;53.406;6.214;2023-02-13T11:42:51;48.17;;;19.13;;
62338;SDS011;48368;53.406;6.214;2023-02-13T11:54:41;44.95;;;21.17;;
62338;SDS011;48368;53.406;6.214;2023-02-13T12:16:39;41.33;;;18.65;;
62338;SDS011;48368;53.406;6.214;2023-02-13T12:48:59;46.88;;;20.75;;
62338;SDS011;48368;53.406;6.214;2023-02-13T13:01:37;46.53;;;19.35;;
62338;SDS011;48368;53.406;6.214;2023-02-13T13:35:17;44.15;;;19.20;;
62338;SDS011;48368;53.406;6.214;2023-02-13T13:38:55;46.92;;;19.52;;
62338;SDS011;48368;53.406;6.214;2023-02-13T13:51:45;45.60;;;19.83;;
62338;SDS011;48368;53.406;6.214;2023-02-13T14:08:01;46.00;;;19.08;;
62338;SDS011;48368;53.406;6.214;2023-02-13T14:11:01;47.80;;;20.33;;
62338;SDS011;48368;53.406;6.214;2023-02-13T14:13:52;48.50;;;21.60;;
62338;SDS011;48368;53.406;6.214;2023-02-13T14:16:37;50.03;;;19.10;;
62338;SDS011;48368;53.406;6.214;2023-02-13T14:25:25;51.38;;;21.42;;
62338;SDS011;48368;53.406;6.214;2023-02-13T14:27:59;50.22;;;21.52;;
62338;SDS011;48368;53.406;6.214;2023-02-13T14:30:36;48.60;;;19.83;;
62338;SDS011;48368;53.406;6.214;2023-02-13T14:33:05;49.80;;;21.80;;
62338;SDS011;48368;53.406;6.214;2023-02-13T14:35:33;46.78;;;20.75;;
62338;SDS011;48368;53.406;6.214;2023-02-13T14:38:02;56.78;;;31.60;;
62338;SDS011;48368;53.406;6.214;2023-02-13T14:43:35;48.25;;;21.88;;
62338;SDS011;48368;53.406;6.214;2023-02-13T14:49:04;43.10;;;17.65;;
62338;SDS011;48368;53.406;6.214;2023-02-13T14:51:48;42.13;;;18.73;;
62338;SDS011;48368;53.406;6.214;2023-02-13T14:54:23;39.30;;;18.55;;
62338;SDS011;48368;53.406;6.214;2023-02-13T14:57:21;44.38;;;18.08;;
62338;SDS011;48368;53.406;6.214;2023-02-13T14:59:52;41.78;;;18.60;;
62338;SDS011;48368;53.406;6.214;2023-02-13T15:07:46;46.75;;;18.75;;
62338;SDS011;48368;53.406;6.214;2023-02-13T15:13:04;42.53;;;17.83;;
62338;SDS011;48368;53.406;6.214;2023-02-13T15:15:31;46.47;;;19.63;;
62338;SDS011;48368;53.406;6.214;2023-02-13T15:18:03;40.83;;;18.85;;
62338;SDS011;48368;53.406;6.214;2023-02-13T15:20:35;41.63;;;19.60;;
62338;SDS011;48368;53.406;6.214;2023-02-13T15:23:03;45.03;;;19.60;;
62338;SDS011;48368;53.406;6.214;2023-02-13T15:28:02;40.05;;;17.67;;
62338;SDS011;48368;53.406;6.214;2023-02-13T15:30:30;42.00;;;18.55;;
62338;SDS011;48368;53.406;6.214;2023-02-13T15:33:02;43.85;;;19.67;;
62338;SDS011;48368;53.406;6.214;2023-02-13T15:35:40;47.47;;;20.80;;
62338;SDS011;48368;53.406;6.214;2023-02-13T15:38:25;45.38;;;19.38;;
62338;SDS011;48368;53.406;6.214;2023-02-13T15:41:09;40.13;;;17.42;;
62338;SDS011;48368;53.406;6.214;2023-02-13T15:43:45;42.72;;;19.00;;
62338;SDS011;48368;53.406;6.214;2023-02-13T15:46:20;42.58;;;18.15;;
62338;SDS011;48368;53.406;6.214;2023-02-13T15:49:03;39.88;;;18.48;;
62338;SDS011;48368;53.406;6.214;2023-02-13T15:51:32;41.92;;;18.92;;
62338;SDS011;48368;53.406;6.214;2023-02-13T15:54:03;46.33;;;20.50;;
62338;SDS011;48368;53.406;6.214;2023-02-13T15:56:30;42.08;;;19.83;;
62338;SDS011;48368;53.406;6.214;2023-02-13T15:58:57;51.85;;;21.73;;
62338;SDS011;48368;53.406;6.214;2023-02-13T16:01:25;38.70;;;18.27;;
62338;SDS011;48368;53.406;6.214;2023-02-13T16:04:13;42.90;;;19.10;;
62338;SDS011;48368;53.406;6.214;2023-02-13T16:06:50;40.38;;;18.65;;
62338;SDS011;48368;53.406;6.214;2023-02-13T16:12:03;44.47;;;18.35;;
62338;SDS011;48368;53.406;6.214;2023-02-13T16:14:44;42.28;;;18.27;;
62338;SDS011;48368;53.406;6.214;2023-02-13T16:17:36;39.78;;;18.30;;
62338;SDS011;48368;53.406;6.214;2023-02-13T16:27:51;43.60;;;18.67;;
62338;SDS011;48368;53.406;6.214;2023-02-13T16:30:35;45.38;;;19.48;;
62338;SDS011;48368;53.406;6.214;2023-02-13T16:35:45;42.25;;;19.50;;
62338;SDS011;48368;53.406;6.214;2023-02-13T16:41:34;44.72;;;19.25;;
62338;SDS011;48368;53.406;6.214;2023-02-13T16:44:18;44.60;;;19.63;;
62338;SDS011;48368;53.406;6.214;2023-02-13T16:47:25;46.42;;;20.30;;
62338;SDS011;48368;53.406;6.214;2023-02-13T16:49:57;45.00;;;19.58;;
62338;SDS011;48368;53.406;6.214;2023-02-13T16:52:36;49.03;;;20.02;;
62338;SDS011;48368;53.406;6.214;2023-02-13T16:55:20;48.45;;;20.60;;
62338;SDS011;48368;53.406;6.214;2023-02-13T16:57:52;48.47;;;20.38;;
62338;SDS011;48368;53.406;6.214;2023-02-13T17:00:32;50.40;;;21.67;;
62338;SDS011;48368;53.406;6.214;2023-02-13T17:03:06;49.55;;;21.70;;
62338;SDS011;48368;53.406;6.214;2023-02-13T17:05:33;45.17;;;20.02;;
62338;SDS011;48368;53.406;6.214;2023-02-13T17:08:01;46.30;;;20.35;;
62338;SDS011;48368;53.406;6.214;2023-02-13T17:10:34;52.45;;;21.55;;
62338;SDS011;48368;53.406;6.214;2023-02-13T17:13:05;50.70;;;23.13;;
62338;SDS011;48368;53.406;6.214;2023-02-13T17:15:42;51.45;;;23.25;;
62338;SDS011;48368;53.406;6.214;2023-02-13T17:18:17;48.95;;;21.98;;
62338;SDS011;48368;53.406;6.214;2023-02-13T17:20:48;48.75;;;21.75;;
62338;SDS011;48368;53.406;6.214;2023-02-13T17:23:18;45.67;;;21.17;;
62338;SDS011;48368;53.406;6.214;2023-02-13T17:25:50;50.03;;;22.90;;
62338;SDS011;48368;53.406;6.214;2023-02-13T17:28:21;53.60;;;22.00;;
62338;SDS011;48368;53.406;6.214;2023-02-13T17:30:50;49.00;;;21.52;;
62338;SDS011;48368;53.406;6.214;2023-02-13T17:33:35;47.92;;;19.75;;
62338;SDS011;48368;53.406;6.214;2023-02-13T17:36:02;44.22;;;20.00;;
62338;SDS011;48368;53.406;6.214;2023-02-13T17:38:38;43.95;;;20.10;;
62338;SDS011;48368;53.406;6.214;2023-02-13T17:41:15;52.83;;;21.55;;
62338;SDS011;48368;53.406;6.214;2023-02-13T17:43:41;48.83;;;21.40;;
62338;SDS011;48368;53.406;6.214;2023-02-13T17:46:07;50.45;;;23.40;;
62338;SDS011;48368;53.406;6.214;2023-02-13T17:48:32;48.22;;;20.60;;
62338;SDS011;48368;53.406;6.214;2023-02-13T17:53:46;50.40;;;21.60;;
62338;SDS011;48368;53.406;6.214;2023-02-13T17:56:30;46.80;;;21.95;;
62338;SDS011;48368;53.406;6.214;2023-02-13T17:58:58;52.80;;;22.30;;
62338;SDS011;48368;53.406;6.214;2023-02-13T18:01:59;56.22;;;23.17;;
62338;SDS011;48368;53.406;6.214;2023-02-13T18:04:26;55.58;;;23.55;;
62338;SDS011;48368;53.406;6.214;2023-02-13T18:07:10;52.20;;;22.00;;
62338;SDS011;48368;53.406;6.214;2023-02-13T18:09:42;60.85;;;25.27;;
62338;SDS011;48368;53.406;6.214;2023-02-13T18:12:33;59.58;;;28.30;;
62338;SDS011;48368;53.406;6.214;2023-02-13T18:15:01;53.50;;;23.85;;
62338;SDS011;48368;53.406;6.214;2023-02-13T18:17:30;54.90;;;25.67;;
62338;SDS011;48368;53.406;6.214;2023-02-13T18:19:59;66.40;;;26.27;;
62338;SDS011;48368;53.406;6.214;2023-02-13T18:22:33;53.25;;;23.05;;
62338;SDS011;48368;53.406;6.214;2023-02-13T18:25:05;60.97;;;25.50;;
62338;SDS011;48368;53.406;6.214;2023-02-13T18:27:38;54.97;;;24.10;;
62338;SDS011;48368;53.406;6.214;2023-02-13T18:30:07;67.28;;;26.58;;
62338;SDS011;48368;53.406;6.214;2023-02-13T18:32:43;61.08;;;27.52;;
62338;SDS011;48368;53.406;6.214;2023-02-13T18:35:09;68.53;;;29.52;;
62338;SDS011;48368;53.406;6.214;2023-02-13T18:37:35;82.70;;;33.97;;
62338;SDS011;48368;53.406;6.214;2023-02-13T18:40:04;87.20;;;38.15;;
62338;SDS011;48368;53.406;6.214;2023-02-13T18:42:33;104.85;;;42.72;;
62338;SDS011;48368;53.406;6.214;2023-02-13T18:45:00;140.32;;;60.00;;
62338;SDS011;48368;53.406;6.214;2023-02-13T18:47:31;147.70;;;62.85;;
62338;SDS011;48368;53.406;6.214;2023-02-13T18:50:14;111.82;;;50.67;;
62338;SDS011;48368;53.406;6.214;2023-02-13T18:52:51;107.38;;;46.25;;
62338;SDS011;48368;53.406;6.214;2023-02-13T18:55:25;93.30;;;41.90;;
62338;SDS011;48368;53.406;6.214;2023-02-13T18:58:08;79.47;;;34.33;;
62338;SDS011;48368;53.406;6.214;2023-02-13T19:00:34;78.65;;;34.78;;
62338;SDS011;48368;53.406;6.214;2023-02-13T19:03:09;85.30;;;38.13;;
62338;SDS011;48368;53.406;6.214;2023-02-13T19:05:41;79.45;;;36.42;;
62338;SDS011;48368;53.406;6.214;2023-02-13T19:08:10;86.07;;;36.08;;
62338;SDS011;48368;53.406;6.214;2023-02-13T19:10:38;116.75;;;49.40;;
62338;SDS011;48368;53.406;6.214;2023-02-13T19:13:16;133.57;;;55.15;;
62338;SDS011;48368;53.406;6.214;2023-02-13T19:18:40;91.78;;;37.53;;
62338;SDS011;48368;53.406;6.214;2023-02-13T19:21:17;84.88;;;37.42;;
62338;SDS011;48368;53.406;6.214;2023-02-13T19:23:47;79.25;;;33.40;;
62338;SDS011;48368;53.406;6.214;2023-02-13T19:29:52;75.65;;;33.92;;
62338;SDS011;48368;53.406;6.214;2023-02-13T19:32:39;90.82;;;39.00;;
62338;SDS011;48368;53.406;6.214;2023-02-13T19:35:34;84.80;;;38.80;;
62338;SDS011;48368;53.406;6.214;2023-02-13T22:21:45;100.18;;;34.50;;
62338;SDS011;48368;53.406;6.214;2023-02-13T22:24:11;108.40;;;40.35;;
62338;SDS011;48368;53.406;6.214;2023-02-13T22:26:37;110.20;;;36.17;;
62338;SDS011;48368;53.406;6.214;2023-02-13T22:29:09;106.57;;;36.38;;
62338;SDS011;48368;53.406;6.214;2023-02-13T22:31:36;94.75;;;35.13;;
62338;SDS011;48368;53.406;6.214;2023-02-13T22:34:03;104.25;;;37.20;;
62338;SDS011;48368;53.406;6.214;2023-02-13T22:36:29;106.60;;;37.53;;
62338;SDS011;48368;53.406;6.214;2023-02-13T22:38:55;98.30;;;38.08;;
62338;SDS011;48368;53.406;6.214;2023-02-13T22:41:24;104.15;;;35.95;;
62338;SDS011;48368;53.406;6.214;2023-02-13T22:43:50;98.45;;;34.85;;
62338;SDS011;48368;53.406;6.214;2023-02-13T22:46:17;103.80;;;38.00;;
62338;SDS011;48368;53.406;6.214;2023-02-13T22:48:54;98.80;;;37.45;;
62338;SDS011;48368;53.406;6.214;2023-02-13T22:51:24;108.80;;;37.72;;
62338;SDS011;48368;53.406;6.214;2023-02-13T22:53:55;106.50;;;37.70;;
62338;SDS011;48368;53.406;6.214;2023-02-13T22:56:22;90.20;;;34.80;;